National Weather Service Raw Text Product

Displaying AFOS PIL: TAFDSM Received: 2018-05-17 11:30 UTC


548 
FTUS43 KDMX 171130
TAFDSM
TAF
KDSM 171130Z 1712/1812 00000KT P6SM SCT200
     FM180000 13006KT P6SM FEW250
     FM180500 10005KT P6SM SKC=